createdAt,value
2019-03-12T00:00:33.982Z,83.60
2019-03-12T00:03:02.418Z,83.60
2019-03-12T00:05:32.429Z,83.70
2019-03-12T00:08:00.806Z,84.00
2019-03-12T00:10:29.306Z,84.10
2019-03-12T00:12:57.750Z,84.50
2019-03-12T00:15:26.191Z,84.60
2019-03-12T00:17:54.614Z,84.80
2019-03-12T00:20:22.982Z,85.00
2019-03-12T00:22:51.367Z,85.10
2019-03-12T00:25:20.100Z,85.10
2019-03-12T00:27:48.926Z,85.40
2019-03-12T00:30:20.614Z,85.50
2019-03-12T00:32:49.010Z,85.90
2019-03-12T00:35:19.502Z,86.00
2019-03-12T00:37:47.888Z,86.10
2019-03-12T00:40:16.257Z,86.20
2019-03-12T00:42:44.543Z,86.40
2019-03-12T00:45:12.927Z,86.40
2019-03-12T00:47:42.054Z,86.40
2019-03-12T00:50:14.263Z,86.60
2019-03-12T00:52:42.649Z,86.30
2019-03-12T00:55:11.114Z,86.20
2019-03-12T00:57:39.550Z,86.20
2019-03-12T01:00:16.214Z,86.40
2019-03-12T01:02:44.681Z,86.70
2019-03-12T01:05:13.046Z,86.70
2019-03-12T01:07:41.443Z,86.80
2019-03-12T01:10:12.047Z,87.10
2019-03-12T01:12:40.438Z,87.20
2019-03-12T01:15:10.882Z,87.30
2019-03-12T01:17:39.274Z,87.80
2019-03-12T01:20:10.376Z,88.00
2019-03-12T01:22:40.491Z,88.20
2019-03-12T01:25:10.164Z,88.40
2019-03-12T01:27:38.519Z,88.60
2019-03-12T01:30:10.146Z,89.00
2019-03-12T01:32:38.511Z,89.40
2019-03-12T01:35:08.000Z,90.10
2019-03-12T01:37:36.371Z,90.20
2019-03-12T01:40:07.353Z,90.30
2019-03-12T01:42:35.873Z,90.40
2019-03-12T01:45:04.537Z,90.40
2019-03-12T01:47:33.009Z,90.50
2019-03-12T01:50:01.370Z,90.50
2019-03-12T01:52:29.755Z,91.10
2019-03-12T01:54:58.111Z,90.70
2019-03-12T01:57:28.269Z,90.80
2019-03-12T01:59:56.733Z,90.90
2019-03-12T02:02:25.065Z,91.00
2019-03-12T02:04:54.030Z,91.10
2019-03-12T02:07:25.324Z,91.20
2019-03-12T02:09:53.754Z,91.10
2019-03-12T02:12:24.914Z,91.30
2019-03-12T02:14:53.326Z,91.40
2019-03-12T02:17:21.688Z,91.50
2019-03-12T02:19:51.770Z,91.80
2019-03-12T02:22:21.696Z,91.80
2019-03-12T02:24:52.941Z,91.90
2019-03-12T02:27:20.202Z,92.00
2019-03-12T02:29:48.581Z,92.10
2019-03-12T02:32:16.990Z,92.20
2019-03-12T02:34:45.378Z,92.10
2019-03-12T02:37:13.771Z,92.10
2019-03-12T02:39:42.245Z,91.90
2019-03-12T02:42:12.689Z,91.80
2019-03-12T02:44:40.732Z,91.90
2019-03-12T02:47:09.070Z,92.20
2019-03-12T02:49:37.851Z,92.40
2019-03-12T02:52:06.207Z,92.50
2019-03-12T02:54:34.610Z,92.60
2019-03-12T02:57:02.983Z,92.80
2019-03-12T02:59:31.451Z,92.90
2019-03-12T03:02:00.482Z,92.80
2019-03-12T03:04:28.850Z,92.60
2019-03-12T03:06:58.942Z,92.60
2019-03-12T03:09:27.363Z,92.80
2019-03-12T03:11:56.683Z,93.10
2019-03-12T03:14:33.230Z,93.20
2019-03-12T03:17:01.876Z,93.40
2019-03-12T03:19:30.310Z,93.70
2019-03-12T03:21:58.746Z,93.50
2019-03-12T03:24:27.142Z,93.40
2019-03-12T03:26:55.602Z,93.30
2019-03-12T03:29:24.007Z,93.10
2019-03-12T03:31:52.427Z,93.00
2019-03-12T03:34:27.223Z,93.40
2019-03-12T03:36:50.886Z,93.60
2019-03-12T03:39:20.030Z,93.60
2019-03-12T03:41:51.414Z,93.00
2019-03-12T03:44:19.781Z,93.10
2019-03-12T03:46:48.170Z,93.20
2019-03-12T03:49:16.621Z,93.40
2019-03-12T03:51:46.647Z,93.30
2019-03-12T03:54:15.018Z,96.80
2019-03-12T03:56:43.410Z,93.30
2019-03-12T03:59:11.803Z,92.60
2019-03-12T04:01:40.266Z,92.70
2019-03-12T04:04:08.633Z,93.00
2019-03-12T04:06:37.015Z,93.10
2019-03-12T04:09:05.833Z,93.30
2019-03-12T04:11:34.320Z,93.40
2019-03-12T04:14:02.670Z,93.30
2019-03-12T04:16:31.061Z,93.40
2019-03-12T04:19:00.094Z,93.70
2019-03-12T04:21:28.476Z,93.60
2019-03-12T04:23:56.863Z,93.50
2019-03-12T04:26:25.276Z,93.70
2019-03-12T04:28:53.708Z,93.90
2019-03-12T04:31:22.001Z,94.40
2019-03-12T04:33:59.178Z,94.30
2019-03-12T04:36:27.542Z,94.10
2019-03-12T04:38:55.965Z,93.80
2019-03-12T04:41:24.417Z,93.50
2019-03-12T04:43:52.806Z,93.50
2019-03-12T04:46:21.169Z,93.50
2019-03-12T04:48:49.558Z,93.60
2019-03-12T04:51:17.971Z,93.60
2019-03-12T04:53:49.410Z,93.70
2019-03-12T04:56:17.797Z,93.70
2019-03-12T04:58:46.187Z,93.80
2019-03-12T05:01:14.574Z,93.70
2019-03-12T05:03:45.457Z,93.70
2019-03-12T05:06:13.802Z,93.80
2019-03-12T05:08:42.286Z,94.10
2019-03-12T05:11:10.679Z,94.40
2019-03-12T05:13:39.070Z,94.60
2019-03-12T05:16:08.646Z,94.80
2019-03-12T05:18:37.146Z,94.90
2019-03-12T05:21:05.469Z,95.60
2019-03-12T05:23:33.828Z,95.20
2019-03-12T05:26:03.025Z,94.60
2019-03-12T05:28:31.422Z,94.50
2019-03-12T05:30:59.859Z,94.40
2019-03-12T05:33:28.247Z,94.60
2019-03-12T05:35:56.614Z,94.80
2019-03-12T05:38:25.133Z,94.90
2019-03-12T05:40:56.465Z,94.70
2019-03-12T05:43:24.841Z,94.40
2019-03-12T05:45:53.244Z,94.30
2019-03-12T05:48:21.673Z,94.10
2019-03-12T05:50:52.917Z,93.90
2019-03-12T05:53:21.298Z,94.60
2019-03-12T05:55:51.302Z,94.10
2019-03-12T05:58:19.689Z,94.30
2019-03-12T06:00:48.110Z,94.00
2019-03-12T06:03:17.398Z,94.00
2019-03-12T06:05:45.838Z,94.10
2019-03-12T06:08:14.501Z,94.00
2019-03-12T06:10:42.879Z,94.00
2019-03-12T06:13:13.324Z,94.30
2019-03-12T06:15:41.687Z,93.70
2019-03-12T06:18:10.092Z,93.50
2019-03-12T06:20:41.128Z,93.50
2019-03-12T06:23:09.511Z,93.60
2019-03-12T06:25:37.903Z,93.60
2019-03-12T06:28:06.328Z,93.50
2019-03-12T06:30:36.404Z,93.50
2019-03-12T06:33:06.403Z,93.60
2019-03-12T06:35:45.425Z,93.60
2019-03-12T06:38:18.627Z,93.50
2019-03-12T06:40:48.669Z,93.30
2019-03-12T06:43:25.193Z,93.10
2019-03-12T06:46:11.233Z,92.60
2019-03-12T06:48:44.267Z,92.80
2019-03-12T06:51:19.283Z,92.50
2019-03-12T06:54:05.562Z,92.70
2019-03-12T06:56:38.714Z,91.80
2019-03-12T06:59:26.918Z,91.40
2019-03-12T07:01:56.946Z,91.40
2019-03-12T07:04:29.976Z,91.20
2019-03-12T07:07:17.430Z,91.10
2019-03-12T07:09:50.266Z,90.90
2019-03-12T07:12:25.994Z,90.40
2019-03-12T07:14:56.063Z,90.20
2019-03-12T07:17:35.093Z,89.90
2019-03-12T07:20:06.507Z,88.50
2019-03-12T07:22:46.406Z,87.70
2019-03-12T07:25:16.417Z,87.50
2019-03-12T07:27:46.421Z,87.50
2019-03-12T07:30:25.665Z,87.10
2019-03-12T07:33:01.583Z,87.00
2019-03-12T07:35:37.483Z,86.50
2019-03-12T07:38:16.970Z,86.40
2019-03-12T07:41:02.102Z,85.80
2019-03-12T07:43:47.970Z,84.90
2019-03-12T07:46:20.625Z,85.30
2019-03-12T07:48:59.398Z,84.90
2019-03-12T07:51:35.118Z,83.20
2019-03-12T07:54:10.678Z,80.50
2019-03-12T07:56:43.810Z,77.10
2019-03-12T07:59:30.062Z,77.20
2019-03-12T08:02:05.733Z,77.30
2019-03-12T08:04:47.424Z,76.00
2019-03-12T08:07:17.353Z,75.20
2019-03-12T08:09:47.332Z,74.30
2019-03-12T08:12:29.145Z,74.40
2019-03-12T08:14:59.260Z,73.60
2019-03-12T08:17:29.269Z,74.10
2019-03-12T08:20:02.362Z,76.00
2019-03-12T08:22:38.179Z,75.40
2019-03-12T08:25:18.337Z,73.80
2019-03-12T08:27:57.431Z,73.10
2019-03-12T08:30:27.455Z,72.00
2019-03-12T08:33:10.242Z,70.90
2019-03-12T08:35:40.259Z,71.30
2019-03-12T08:38:10.262Z,68.10
2019-03-12T08:40:52.039Z,67.70
2019-03-12T08:43:27.849Z,67.30
2019-03-12T08:46:00.611Z,67.50
2019-03-12T08:48:30.650Z,65.20
2019-03-12T08:51:12.742Z,63.40
2019-03-12T08:53:51.646Z,60.90
2019-03-12T08:56:27.629Z,59.90
2019-03-12T08:59:07.601Z,54.90
2019-03-12T09:01:37.667Z,56.60
2019-03-12T09:04:07.736Z,55.40
2019-03-12T09:06:43.530Z,55.80
2019-03-12T09:09:22.689Z,54.30
2019-03-12T09:11:58.829Z,53.80
2019-03-12T09:14:28.833Z,55.40
2019-03-12T09:17:01.723Z,53.10
2019-03-12T09:19:49.513Z,53.20
2019-03-12T09:22:23.338Z,54.30
2019-03-12T09:24:53.420Z,54.90
2019-03-12T09:27:26.430Z,54.20
2019-03-12T09:30:10.383Z,54.30
2019-03-12T09:32:40.465Z,53.90
2019-03-12T09:35:11.554Z,53.50
2019-03-12T09:37:41.639Z,55.10
2019-03-12T09:40:29.588Z,52.40
2019-03-12T09:43:02.522Z,50.90
2019-03-12T09:45:32.607Z,50.90
2019-03-12T09:48:08.930Z,50.10
2019-03-12T09:50:45.370Z,48.90
2019-03-12T09:53:29.520Z,48.30
2019-03-12T09:56:06.693Z,46.80
2019-03-12T09:58:51.901Z,47.00
2019-03-12T10:01:40.605Z,47.80
2019-03-12T10:04:13.666Z,45.30
2019-03-12T10:06:46.419Z,45.80
2019-03-12T10:09:35.055Z,44.40
2019-03-12T10:12:08.024Z,45.00
2019-03-12T10:14:41.521Z,44.20
2019-03-12T10:17:17.673Z,45.50
2019-03-12T10:19:50.341Z,44.90
2019-03-12T10:22:26.330Z,43.70
2019-03-12T10:25:02.445Z,43.80
2019-03-12T10:27:44.527Z,44.10
2019-03-12T10:30:17.669Z,43.20
2019-03-12T10:32:56.445Z,42.50
2019-03-12T10:35:28.980Z,41.60
2019-03-12T10:38:14.646Z,41.50
2019-03-12T10:40:53.590Z,41.70
2019-03-12T10:43:23.622Z,39.90
2019-03-12T10:45:53.646Z,38.00
2019-03-12T10:48:22.054Z,36.60
2019-03-12T10:50:50.500Z,34.90
2019-03-12T10:53:18.897Z,35.20
2019-03-12T10:55:47.268Z,33.70
2019-03-12T10:58:15.719Z,34.30
2019-03-12T11:00:45.747Z,32.90
2019-03-12T11:03:14.087Z,31.10
2019-03-12T11:05:46.172Z,31.30
2019-03-12T11:08:12.593Z,30.40
2019-03-12T11:10:44.000Z,30.80
2019-03-12T11:13:14.681Z,29.00
2019-03-12T11:15:42.480Z,28.90
2019-03-12T11:18:10.861Z,27.90
2019-03-12T11:20:40.149Z,27.10
2019-03-12T11:23:08.525Z,27.00
2019-03-12T11:25:38.002Z,26.50
2019-03-12T11:28:06.899Z,25.50
2019-03-12T11:30:35.302Z,24.90
2019-03-12T11:33:03.668Z,25.40
2019-03-12T11:35:39.298Z,24.70
2019-03-12T11:38:02.398Z,24.40
2019-03-12T11:40:32.521Z,24.30
2019-03-12T11:43:01.207Z,24.70
2019-03-12T11:45:36.351Z,25.00
2019-03-12T11:47:59.606Z,25.80
2019-03-12T11:50:28.055Z,26.10
2019-03-12T11:52:59.043Z,26.70
2019-03-12T11:55:28.205Z,26.40
2019-03-12T11:57:56.606Z,26.80
2019-03-12T12:00:29.855Z,25.90
2019-03-12T12:03:00.337Z,27.00
2019-03-12T12:05:28.429Z,27.90
2019-03-12T12:07:56.917Z,28.90
2019-03-12T12:10:25.316Z,29.00
2019-03-12T12:12:53.659Z,28.50
2019-03-12T12:15:22.207Z,28.20
2019-03-12T12:17:51.511Z,29.00
2019-03-12T12:20:29.553Z,29.10
2019-03-12T12:22:49.962Z,29.90
2019-03-12T12:25:19.262Z,29.90
2019-03-12T12:27:47.662Z,29.20
2019-03-12T12:30:23.420Z,29.50
2019-03-12T12:32:51.915Z,29.80
2019-03-12T12:35:20.421Z,31.10
2019-03-12T12:37:48.820Z,30.50
2019-03-12T12:40:19.359Z,31.50
2019-03-12T12:42:47.824Z,29.70
2019-03-12T12:45:18.888Z,30.80
2019-03-12T12:47:47.346Z,30.80
2019-03-12T12:50:15.733Z,30.60
2019-03-12T12:52:44.233Z,29.90
2019-03-12T12:55:14.168Z,30.40
2019-03-12T12:57:42.526Z,31.00
2019-03-12T13:00:23.111Z,31.40
2019-03-12T13:02:51.642Z,31.20
2019-03-12T13:05:21.225Z,31.90
2019-03-12T13:07:49.581Z,32.30
2019-03-12T13:10:23.299Z,33.00
2019-03-12T13:12:51.738Z,33.10
2019-03-12T13:15:20.178Z,33.50
2019-03-12T13:17:48.558Z,33.90
2019-03-12T13:20:18.925Z,32.30
2019-03-12T13:22:47.057Z,32.20
2019-03-12T13:25:16.376Z,34.10
2019-03-12T13:27:44.910Z,33.70
2019-03-12T13:30:20.469Z,35.20
2019-03-12T13:32:49.069Z,35.70
2019-03-12T13:35:18.082Z,35.60
2019-03-12T13:37:46.642Z,36.20
2019-03-12T13:40:23.371Z,36.10
2019-03-12T13:42:51.892Z,36.20
2019-03-12T13:45:24.933Z,36.90
2019-03-12T13:47:53.391Z,37.70
2019-03-12T13:50:21.761Z,38.60
2019-03-12T13:52:50.205Z,39.00
2019-03-12T13:55:18.661Z,39.70
2019-03-12T13:57:46.972Z,40.40
2019-03-12T14:00:22.303Z,40.90
2019-03-12T14:02:50.769Z,40.80
2019-03-12T14:05:19.141Z,40.10
2019-03-12T14:07:47.571Z,40.30
2019-03-12T14:10:29.485Z,40.40
2019-03-12T14:12:57.978Z,40.50
2019-03-12T14:15:34.631Z,41.00
2019-03-12T14:18:03.026Z,40.40
2019-03-12T14:20:39.788Z,40.70
2019-03-12T14:23:08.896Z,41.00
2019-03-12T14:25:38.075Z,41.90
2019-03-12T14:28:06.722Z,42.10
2019-03-12T14:30:35.010Z,42.20
2019-03-12T14:33:03.370Z,42.30
2019-03-12T14:35:31.826Z,42.70
2019-03-12T14:38:00.255Z,42.60
2019-03-12T14:40:29.903Z,43.10
2019-03-12T14:42:58.236Z,43.70
2019-03-12T14:45:28.659Z,43.90
2019-03-12T14:47:57.953Z,43.70
2019-03-12T14:50:27.838Z,44.30
2019-03-12T14:53:02.183Z,44.60
2019-03-12T14:55:30.619Z,45.00
2019-03-12T14:57:58.994Z,45.60
2019-03-12T15:00:30.333Z,46.10
2019-03-12T15:02:58.725Z,46.70
2019-03-12T15:05:27.181Z,47.90
2019-03-12T15:07:55.636Z,48.00
2019-03-12T15:10:25.657Z,48.80
2019-03-12T15:12:54.134Z,49.30
2019-03-12T15:15:22.782Z,49.40
2019-03-12T15:17:51.250Z,50.40
2019-03-12T15:20:19.625Z,50.20
2019-03-12T15:22:48.164Z,51.00
2019-03-12T15:25:16.662Z,51.50
2019-03-12T15:27:45.131Z,52.60
2019-03-12T15:30:22.270Z,54.50
2019-03-12T15:32:50.646Z,55.70
2019-03-12T15:35:21.887Z,57.20
2019-03-12T15:37:50.690Z,59.60
2019-03-12T15:40:19.177Z,63.30
2019-03-12T15:42:48.725Z,64.00
2019-03-12T15:45:17.220Z,65.10
2019-03-12T15:47:45.713Z,65.50
2019-03-12T15:50:18.972Z,65.70
2019-03-12T15:52:47.036Z,66.40
2019-03-12T15:55:15.406Z,66.40
2019-03-12T15:57:43.793Z,66.90
2019-03-12T16:00:16.434Z,67.20
2019-03-12T16:02:44.833Z,67.70
2019-03-12T16:05:13.266Z,68.90
2019-03-12T16:07:41.649Z,70.20
2019-03-12T16:10:13.266Z,70.90
2019-03-12T16:12:41.664Z,72.20
2019-03-12T16:15:14.224Z,73.40
2019-03-12T16:17:45.298Z,74.20
2019-03-12T16:20:15.884Z,75.70
2019-03-12T16:22:44.301Z,76.70
2019-03-12T16:25:12.665Z,77.20
2019-03-12T16:27:41.112Z,77.80
2019-03-12T16:30:14.550Z,78.80
2019-03-12T16:32:42.935Z,79.60
2019-03-12T16:35:11.315Z,80.60
2019-03-12T16:37:40.043Z,81.20
2019-03-12T16:40:11.285Z,81.50
2019-03-12T16:42:39.689Z,82.20
2019-03-12T16:45:10.397Z,82.60
2019-03-12T16:47:41.708Z,82.70
2019-03-12T16:50:16.462Z,82.70
2019-03-12T16:52:44.819Z,82.90
2019-03-12T16:55:17.260Z,83.00
2019-03-12T16:57:45.723Z,83.30
2019-03-12T17:00:21.666Z,83.70
2019-03-12T17:02:50.112Z,84.10
2019-03-12T17:05:18.442Z,84.10
2019-03-12T17:07:48.548Z,84.30
2019-03-12T17:10:19.421Z,84.50
2019-03-12T17:12:47.924Z,84.60
2019-03-12T17:15:22.689Z,84.80
2019-03-12T17:17:51.065Z,84.60
2019-03-12T17:20:21.078Z,85.60
2019-03-12T17:22:49.438Z,84.80
2019-03-12T17:25:17.831Z,84.90
2019-03-12T17:27:46.188Z,85.30
2019-03-12T17:30:17.824Z,85.70
2019-03-12T17:32:45.590Z,86.20
2019-03-12T17:35:17.218Z,86.30
2019-03-12T17:37:47.273Z,86.50
2019-03-12T17:40:20.564Z,86.70
2019-03-12T17:42:48.915Z,87.10
2019-03-12T17:45:18.940Z,87.30
2019-03-12T17:47:48.941Z,87.60
2019-03-12T17:50:17.481Z,87.70
2019-03-12T17:52:45.893Z,87.80
2019-03-12T17:55:14.702Z,88.00
2019-03-12T17:57:43.082Z,88.10
2019-03-12T18:00:28.306Z,88.20
2019-03-12T18:02:55.817Z,88.30
2019-03-12T18:05:24.179Z,88.20
2019-03-12T18:07:52.570Z,88.50
2019-03-12T18:10:20.990Z,88.40
2019-03-12T18:12:49.358Z,88.60
2019-03-12T18:15:21.110Z,88.70
2019-03-12T18:17:49.483Z,88.50
2019-03-12T18:20:24.143Z,88.70
2019-03-12T18:22:52.574Z,88.90
2019-03-12T18:25:29.728Z,89.00
2019-03-12T18:27:58.163Z,89.20
2019-03-12T18:30:26.491Z,89.20
2019-03-12T18:32:54.881Z,89.20
2019-03-12T18:35:23.312Z,89.10
2019-03-12T18:37:51.733Z,89.20
2019-03-12T18:40:21.379Z,89.30
2019-03-12T18:42:49.879Z,89.30
2019-03-12T18:45:23.313Z,89.50
2019-03-12T18:47:51.707Z,89.70
2019-03-12T18:50:20.161Z,89.60
2019-03-12T18:52:48.639Z,90.00
2019-03-12T18:55:38.006Z,90.10
2019-03-12T18:58:09.181Z,90.40
2019-03-12T19:00:38.170Z,90.50
2019-03-12T19:03:06.627Z,90.80
2019-03-12T19:05:35.010Z,91.10
2019-03-12T19:08:03.384Z,91.30
2019-03-12T19:10:31.798Z,91.60
2019-03-12T19:13:00.136Z,92.00
2019-03-12T19:15:28.599Z,92.10
2019-03-12T19:17:56.965Z,92.50
2019-03-12T19:20:25.424Z,92.60
2019-03-12T19:22:53.842Z,92.30
2019-03-12T19:25:24.347Z,92.60
2019-03-12T19:27:59.987Z,92.80
2019-03-12T19:30:22.751Z,92.90
2019-03-12T19:32:52.757Z,93.20
2019-03-12T19:35:28.824Z,93.30
2019-03-12T19:37:58.247Z,93.50
2019-03-12T19:40:42.077Z,93.60
2019-03-12T19:43:10.445Z,93.80
2019-03-12T19:45:38.855Z,93.90
2019-03-12T19:48:07.215Z,94.10
2019-03-12T19:50:35.818Z,94.10
2019-03-12T19:53:05.807Z,94.20
2019-03-12T19:55:44.826Z,94.60
2019-03-12T19:58:13.208Z,94.40
2019-03-12T20:00:41.646Z,94.30
2019-03-12T20:03:14.801Z,94.40
2019-03-12T20:05:40.231Z,94.30
2019-03-12T20:08:08.564Z,94.50
2019-03-12T20:10:56.426Z,94.60
2019-03-12T20:13:36.790Z,94.60
2019-03-12T20:16:37.090Z,94.60
2019-03-12T20:19:26.584Z,94.70
2019-03-12T20:22:17.521Z,94.60
2019-03-12T20:25:22.308Z,94.60
2019-03-12T20:28:11.919Z,94.50
2019-03-12T20:30:46.182Z,94.40
2019-03-12T20:33:40.113Z,94.50
2019-03-12T20:36:44.635Z,94.50
2019-03-12T20:39:32.785Z,94.60
2019-03-12T20:42:26.858Z,94.50
2019-03-12T20:45:07.005Z,94.60
2019-03-12T20:47:58.048Z,94.30
2019-03-12T20:51:01.433Z,94.30
2019-03-12T20:54:04.634Z,94.40
2019-03-12T20:56:51.828Z,94.00
2019-03-12T20:59:49.006Z,94.00
2019-03-12T21:02:50.863Z,94.10
2019-03-12T21:05:50.766Z,93.90
2019-03-12T21:08:30.734Z,93.80
2019-03-12T21:11:21.427Z,94.00
2019-03-12T21:14:18.314Z,93.90
2019-03-12T21:17:11.104Z,94.00
2019-03-12T21:19:54.842Z,94.00
2019-03-12T21:22:32.282Z,94.20
2019-03-12T21:25:18.994Z,94.40
2019-03-12T21:28:06.969Z,94.20
2019-03-12T21:30:35.277Z,94.30
2019-03-12T21:33:14.843Z,94.40
2019-03-12T21:35:33.686Z,94.50
2019-03-12T21:38:02.057Z,94.50
2019-03-12T21:40:30.427Z,94.70
2019-03-12T21:42:58.862Z,94.80
2019-03-12T21:45:27.982Z,95.00
2019-03-12T21:47:56.272Z,95.00
2019-03-12T21:50:24.635Z,95.00
2019-03-12T21:52:53.029Z,95.10
2019-03-12T21:55:21.417Z,95.10
2019-03-12T21:57:49.766Z,95.10
2019-03-12T22:00:19.946Z,95.20
2019-03-12T22:02:48.311Z,95.50
2019-03-12T22:05:16.675Z,95.20
2019-03-12T22:07:45.962Z,95.30
2019-03-12T22:10:14.418Z,95.40
2019-03-12T22:12:42.834Z,95.40
2019-03-12T22:15:12.335Z,95.30
2019-03-12T22:17:40.705Z,95.30
2019-03-12T22:20:13.000Z,95.40
2019-03-12T22:22:52.171Z,95.30
2019-03-12T22:25:20.574Z,95.40
2019-03-12T22:27:48.980Z,95.40
2019-03-12T22:30:23.248Z,95.40
2019-03-12T22:32:51.679Z,95.20
2019-03-12T22:35:20.025Z,95.40
2019-03-12T22:37:48.394Z,95.10
2019-03-12T22:40:17.108Z,95.20
2019-03-12T22:42:45.497Z,95.20
2019-03-12T22:45:13.858Z,95.30
2019-03-12T22:47:42.307Z,95.10
2019-03-12T22:50:14.992Z,95.20
2019-03-12T22:52:43.379Z,95.20
2019-03-12T22:55:14.850Z,95.10
2019-03-12T22:57:43.182Z,95.10
2019-03-12T23:00:17.882Z,95.20
2019-03-12T23:02:46.253Z,95.10
2019-03-12T23:05:14.690Z,95.30
2019-03-12T23:07:43.308Z,95.30
2019-03-12T23:10:12.650Z,95.30
2019-03-12T23:12:41.104Z,95.40
2019-03-12T23:15:15.362Z,95.30
2019-03-12T23:17:43.755Z,95.30
2019-03-12T23:20:19.575Z,95.40
2019-03-12T23:22:47.953Z,95.40
2019-03-12T23:25:16.397Z,95.30
2019-03-12T23:27:44.787Z,95.30
2019-03-12T23:30:16.498Z,95.40
2019-03-12T23:32:44.968Z,95.50
2019-03-12T23:35:13.334Z,95.40
2019-03-12T23:37:41.785Z,95.20
2019-03-12T23:40:17.880Z,95.40
2019-03-12T23:42:46.305Z,95.30
2019-03-12T23:45:16.826Z,95.30
2019-03-12T23:47:45.273Z,95.40
2019-03-12T23:50:15.170Z,95.30
2019-03-12T23:52:43.622Z,95.10
2019-03-12T23:55:13.431Z,95.20
2019-03-12T23:57:41.944Z,95.10
